sensor_id;sensor_type;location;lat;lon;timestamp;pressure;altitude;pressure_sealevel;temperature;humidity
50226;BME280;36113;50.742;6.432;2023-04-28T00:01:09;112741.81;;;-145.50;73.91
50226;BME280;36113;50.742;6.432;2023-04-28T00:03:35;112741.81;;;-145.50;73.50
50226;BME280;36113;50.742;6.432;2023-04-28T00:06:01;112741.81;;;-145.50;74.03
50226;BME280;36113;50.742;6.432;2023-04-28T00:08:27;112741.81;;;-145.50;75.46
50226;BME280;36113;50.742;6.432;2023-04-28T00:10:52;112741.81;;;-145.50;76.54
50226;BME280;36113;50.742;6.432;2023-04-28T00:13:18;112741.81;;;-145.50;77.46
50226;BME280;36113;50.742;6.432;2023-04-28T00:15:43;112741.81;;;-145.50;78.27
50226;BME280;36113;50.742;6.432;2023-04-28T00:18:09;112741.81;;;-145.50;79.26
50226;BME280;36113;50.742;6.432;2023-04-28T00:20:34;112741.81;;;-145.50;79.76
50226;BME280;36113;50.742;6.432;2023-04-28T00:22:59;112741.81;;;-145.50;80.38
50226;BME280;36113;50.742;6.432;2023-04-28T00:25:25;112741.81;;;-145.50;80.91
50226;BME280;36113;50.742;6.432;2023-04-28T00:27:50;112741.81;;;-145.50;81.12
50226;BME280;36113;50.742;6.432;2023-04-28T00:30:15;112741.81;;;-145.50;81.63
50226;BME280;36113;50.742;6.432;2023-04-28T00:32:41;112741.81;;;-145.50;81.70
50226;BME280;36113;50.742;6.432;2023-04-28T00:35:06;112741.81;;;-145.50;81.87
50226;BME280;36113;50.742;6.432;2023-04-28T00:37:35;112741.81;;;-145.50;82.16
50226;BME280;36113;50.742;6.432;2023-04-28T00:40:00;112741.81;;;-145.50;82.11
50226;BME280;36113;50.742;6.432;2023-04-28T00:42:26;112741.81;;;-145.50;81.74
50226;BME280;36113;50.742;6.432;2023-04-28T00:44:51;112741.81;;;-145.50;81.54
50226;BME280;36113;50.742;6.432;2023-04-28T00:47:17;112741.81;;;-145.50;81.87
50226;BME280;36113;50.742;6.432;2023-04-28T00:49:43;112741.81;;;-145.50;81.85
50226;BME280;36113;50.742;6.432;2023-04-28T00:52:09;112741.81;;;-145.50;82.22
50226;BME280;36113;50.742;6.432;2023-04-28T00:54:34;112741.81;;;-145.50;82.74
50226;BME280;36113;50.742;6.432;2023-04-28T00:57:00;112741.81;;;-145.50;83.58
50226;BME280;36113;50.742;6.432;2023-04-28T00:59:30;112741.81;;;-145.50;84.33
50226;BME280;36113;50.742;6.432;2023-04-28T01:01:55;112741.81;;;-145.50;84.80
50226;BME280;36113;50.742;6.432;2023-04-28T01:04:21;112741.81;;;-145.50;84.91
50226;BME280;36113;50.742;6.432;2023-04-28T01:06:48;112741.81;;;-145.50;85.27
50226;BME280;36113;50.742;6.432;2023-04-28T01:09:13;112741.81;;;-145.50;85.33
50226;BME280;36113;50.742;6.432;2023-04-28T01:11:38;112741.81;;;-145.50;85.68
50226;BME280;36113;50.742;6.432;2023-04-28T01:14:04;112741.81;;;-145.50;85.76
50226;BME280;36113;50.742;6.432;2023-04-28T01:16:29;112741.81;;;-145.50;85.63
50226;BME280;36113;50.742;6.432;2023-04-28T01:18:57;112741.81;;;-145.50;85.96
50226;BME280;36113;50.742;6.432;2023-04-28T01:21:34;112741.81;;;-145.50;86.33
50226;BME280;36113;50.742;6.432;2023-04-28T01:24:00;112741.81;;;-145.50;86.21
50226;BME280;36113;50.742;6.432;2023-04-28T01:26:26;112741.81;;;-145.50;85.79
50226;BME280;36113;50.742;6.432;2023-04-28T01:28:51;112741.81;;;-145.50;85.75
50226;BME280;36113;50.742;6.432;2023-04-28T01:31:17;112741.81;;;-145.50;85.46
50226;BME280;36113;50.742;6.432;2023-04-28T01:33:42;112741.81;;;-145.50;85.30
50226;BME280;36113;50.742;6.432;2023-04-28T01:36:08;112741.81;;;-145.50;85.19
50226;BME280;36113;50.742;6.432;2023-04-28T01:38:33;112741.81;;;-145.50;85.51
50226;BME280;36113;50.742;6.432;2023-04-28T01:40:58;112741.81;;;-145.50;85.83
50226;BME280;36113;50.742;6.432;2023-04-28T01:43:24;112741.81;;;-145.50;85.93
50226;BME280;36113;50.742;6.432;2023-04-28T01:45:49;112741.81;;;-145.50;86.33
50226;BME280;36113;50.742;6.432;2023-04-28T01:48:15;112741.81;;;-145.50;86.77
50226;BME280;36113;50.742;6.432;2023-04-28T01:50:40;112741.81;;;-145.50;86.78
50226;BME280;36113;50.742;6.432;2023-04-28T01:53:25;112741.81;;;-145.50;86.93
50226;BME280;36113;50.742;6.432;2023-04-28T01:56:09;112741.81;;;-145.50;87.46
50226;BME280;36113;50.742;6.432;2023-04-28T01:58:34;112741.81;;;-145.50;88.53
50226;BME280;36113;50.742;6.432;2023-04-28T02:00:59;112741.81;;;-145.50;89.49
50226;BME280;36113;50.742;6.432;2023-04-28T02:03:25;112741.81;;;-145.50;90.48
50226;BME280;36113;50.742;6.432;2023-04-28T02:05:51;112741.81;;;-145.50;91.12
50226;BME280;36113;50.742;6.432;2023-04-28T02:08:17;112741.81;;;-145.50;91.53
50226;BME280;36113;50.742;6.432;2023-04-28T02:10:42;112741.81;;;-145.50;92.44
50226;BME280;36113;50.742;6.432;2023-04-28T02:13:09;112741.81;;;-145.50;94.30
50226;BME280;36113;50.742;6.432;2023-04-28T02:15:38;112741.81;;;-145.50;95.98
50226;BME280;36113;50.742;6.432;2023-04-28T02:18:04;112741.81;;;-145.50;96.54
50226;BME280;36113;50.742;6.432;2023-04-28T02:20:29;112741.81;;;-145.50;97.09
50226;BME280;36113;50.742;6.432;2023-04-28T02:22:54;112741.81;;;-145.50;96.75
50226;BME280;36113;50.742;6.432;2023-04-28T02:25:20;112741.81;;;-145.50;96.73
50226;BME280;36113;50.742;6.432;2023-04-28T02:27:46;112741.81;;;-145.50;97.10
50226;BME280;36113;50.742;6.432;2023-04-28T02:30:12;112741.81;;;-145.50;98.06
50226;BME280;36113;50.742;6.432;2023-04-28T02:32:37;112741.81;;;-145.50;98.40
50226;BME280;36113;50.742;6.432;2023-04-28T02:35:03;112741.81;;;-145.50;98.42
50226;BME280;36113;50.742;6.432;2023-04-28T02:37:29;112741.81;;;-145.50;98.11
50226;BME280;36113;50.742;6.432;2023-04-28T02:39:54;112741.81;;;-145.50;98.33
50226;BME280;36113;50.742;6.432;2023-04-28T02:42:19;112741.81;;;-145.50;98.50
50226;BME280;36113;50.742;6.432;2023-04-28T02:44:45;112741.81;;;-145.50;98.55
50226;BME280;36113;50.742;6.432;2023-04-28T02:47:10;112741.81;;;-145.50;98.60
50226;BME280;36113;50.742;6.432;2023-04-28T02:49:36;112741.81;;;-145.50;98.82
50226;BME280;36113;50.742;6.432;2023-04-28T02:52:01;112741.81;;;-145.50;99.35
50226;BME280;36113;50.742;6.432;2023-04-28T02:54:27;112741.81;;;-145.50;99.56
50226;BME280;36113;50.742;6.432;2023-04-28T02:56:53;112741.81;;;-145.50;99.84
50226;BME280;36113;50.742;6.432;2023-04-28T02:59:19;112741.81;;;-145.50;99.98
50226;BME280;36113;50.742;6.432;2023-04-28T03:01:45;112741.81;;;-145.50;100.00
50226;BME280;36113;50.742;6.432;2023-04-28T03:04:10;112741.81;;;-145.50;99.68
50226;BME280;36113;50.742;6.432;2023-04-28T03:06:35;112741.81;;;-145.50;99.55
50226;BME280;36113;50.742;6.432;2023-04-28T03:09:01;112741.81;;;-145.50;99.42
50226;BME280;36113;50.742;6.432;2023-04-28T03:11:26;112741.81;;;-145.50;99.35
50226;BME280;36113;50.742;6.432;2023-04-28T03:13:51;112741.81;;;-145.50;99.47
50226;BME280;36113;50.742;6.432;2023-04-28T03:16:17;112741.81;;;-145.50;100.00
50226;BME280;36113;50.742;6.432;2023-04-28T03:18:42;112741.81;;;-145.50;100.00
50226;BME280;36113;50.742;6.432;2023-04-28T03:21:07;112741.81;;;-145.50;100.00
50226;BME280;36113;50.742;6.432;2023-04-28T03:23:33;112741.81;;;-145.50;100.00
50226;BME280;36113;50.742;6.432;2023-04-28T03:25:58;112741.81;;;-145.50;100.00
50226;BME280;36113;50.742;6.432;2023-04-28T03:28:23;112741.81;;;-145.50;100.00
50226;BME280;36113;50.742;6.432;2023-04-28T03:30:49;112741.81;;;-145.50;100.00
50226;BME280;36113;50.742;6.432;2023-04-28T03:33:14;112741.81;;;-145.50;100.00
50226;BME280;36113;50.742;6.432;2023-04-28T03:35:39;112741.81;;;-145.50;100.00
50226;BME280;36113;50.742;6.432;2023-04-28T03:38:05;112741.81;;;-145.50;100.00
50226;BME280;36113;50.742;6.432;2023-04-28T03:40:31;112741.81;;;-145.50;100.00
50226;BME280;36113;50.742;6.432;2023-04-28T03:42:57;112741.81;;;-145.50;100.00
50226;BME280;36113;50.742;6.432;2023-04-28T03:45:23;112741.81;;;-145.50;100.00
50226;BME280;36113;50.742;6.432;2023-04-28T03:47:49;112741.81;;;-145.50;100.00
50226;BME280;36113;50.742;6.432;2023-04-28T03:50:14;112741.81;;;-145.50;100.00
50226;BME280;36113;50.742;6.432;2023-04-28T03:52:39;112741.81;;;-145.50;100.00
50226;BME280;36113;50.742;6.432;2023-04-28T03:55:05;112741.81;;;-145.50;100.00
50226;BME280;36113;50.742;6.432;2023-04-28T03:57:30;112741.81;;;-145.50;100.00
50226;BME280;36113;50.742;6.432;2023-04-28T03:59:56;112741.81;;;-145.50;100.00
50226;BME280;36113;50.742;6.432;2023-04-28T04:02:21;112741.81;;;-145.50;100.00
50226;BME280;36113;50.742;6.432;2023-04-28T04:04:46;112741.81;;;-145.50;100.00
50226;BME280;36113;50.742;6.432;2023-04-28T04:07:12;112741.81;;;-145.50;100.00
50226;BME280;36113;50.742;6.432;2023-04-28T04:09:38;112741.81;;;-145.50;100.00
50226;BME280;36113;50.742;6.432;2023-04-28T04:12:03;112741.81;;;-145.50;100.00
50226;BME280;36113;50.742;6.432;2023-04-28T04:14:29;112741.81;;;-145.50;100.00
50226;BME280;36113;50.742;6.432;2023-04-28T04:16:54;112741.81;;;-145.50;100.00
50226;BME280;36113;50.742;6.432;2023-04-28T04:19:20;112741.81;;;-145.50;100.00
50226;BME280;36113;50.742;6.432;2023-04-28T04:21:48;112741.81;;;-145.50;100.00
50226;BME280;36113;50.742;6.432;2023-04-28T04:24:13;112741.81;;;-145.50;100.00
50226;BME280;36113;50.742;6.432;2023-04-28T04:26:38;112741.81;;;-145.50;100.00
50226;BME280;36113;50.742;6.432;2023-04-28T04:29:03;112741.81;;;-145.50;100.00
50226;BME280;36113;50.742;6.432;2023-04-28T04:31:29;112741.81;;;-145.50;100.00
50226;BME280;36113;50.742;6.432;2023-04-28T04:33:54;112741.81;;;-145.50;100.00
50226;BME280;36113;50.742;6.432;2023-04-28T04:36:19;112741.81;;;-145.50;100.00
50226;BME280;36113;50.742;6.432;2023-04-28T04:38:45;112741.81;;;-145.50;100.00
50226;BME280;36113;50.742;6.432;2023-04-28T04:41:10;112741.81;;;-145.50;100.00
50226;BME280;36113;50.742;6.432;2023-04-28T04:43:36;112741.81;;;-145.50;100.00
50226;BME280;36113;50.742;6.432;2023-04-28T04:46:01;112741.81;;;-145.50;100.00
50226;BME280;36113;50.742;6.432;2023-04-28T04:48:28;112741.81;;;-145.50;100.00
50226;BME280;36113;50.742;6.432;2023-04-28T04:50:53;112741.81;;;-145.50;100.00
50226;BME280;36113;50.742;6.432;2023-04-28T04:53:18;112741.81;;;-145.50;100.00
50226;BME280;36113;50.742;6.432;2023-04-28T04:55:44;112741.81;;;-145.50;100.00
50226;BME280;36113;50.742;6.432;2023-04-28T04:58:12;112741.81;;;-145.50;100.00
50226;BME280;36113;50.742;6.432;2023-04-28T05:00:38;112741.81;;;-145.50;100.00
50226;BME280;36113;50.742;6.432;2023-04-28T05:03:04;112741.81;;;-145.50;100.00
50226;BME280;36113;50.742;6.432;2023-04-28T05:05:30;112741.81;;;-145.50;100.00
50226;BME280;36113;50.742;6.432;2023-04-28T05:07:56;112741.81;;;-145.50;100.00
50226;BME280;36113;50.742;6.432;2023-04-28T05:10:23;112741.81;;;-145.50;100.00
50226;BME280;36113;50.742;6.432;2023-04-28T05:12:48;112741.81;;;-145.50;100.00
50226;BME280;36113;50.742;6.432;2023-04-28T05:15:14;112741.81;;;-145.50;100.00
50226;BME280;36113;50.742;6.432;2023-04-28T05:17:40;112741.81;;;-145.50;100.00
50226;BME280;36113;50.742;6.432;2023-04-28T05:20:05;112741.81;;;-145.50;100.00
50226;BME280;36113;50.742;6.432;2023-04-28T05:22:31;112741.81;;;-145.50;100.00
50226;BME280;36113;50.742;6.432;2023-04-28T05:24:56;112741.81;;;-145.50;100.00
50226;BME280;36113;50.742;6.432;2023-04-28T05:27:21;112741.81;;;-145.50;100.00
50226;BME280;36113;50.742;6.432;2023-04-28T05:29:47;112741.81;;;-145.50;100.00
50226;BME280;36113;50.742;6.432;2023-04-28T05:32:12;112741.81;;;-145.50;100.00
50226;BME280;36113;50.742;6.432;2023-04-28T05:34:38;112741.81;;;-145.50;100.00
50226;BME280;36113;50.742;6.432;2023-04-28T05:37:03;112741.81;;;-145.50;100.00
50226;BME280;36113;50.742;6.432;2023-04-28T05:39:28;112741.81;;;-145.50;100.00
50226;BME280;36113;50.742;6.432;2023-04-28T05:41:54;112741.81;;;-145.50;100.00
50226;BME280;36113;50.742;6.432;2023-04-28T05:44:19;112741.81;;;-145.50;100.00
50226;BME280;36113;50.742;6.432;2023-04-28T05:46:45;112741.81;;;-145.50;100.00
50226;BME280;36113;50.742;6.432;2023-04-28T05:49:10;112741.81;;;-145.50;100.00
50226;BME280;36113;50.742;6.432;2023-04-28T05:51:35;112741.81;;;-145.50;100.00
50226;BME280;36113;50.742;6.432;2023-04-28T05:54:01;112741.81;;;-145.50;100.00
50226;BME280;36113;50.742;6.432;2023-04-28T05:56:27;112741.81;;;-145.50;100.00
50226;BME280;36113;50.742;6.432;2023-04-28T05:58:52;112741.81;;;-145.50;100.00
50226;BME280;36113;50.742;6.432;2023-04-28T06:01:18;112741.81;;;-145.50;100.00
50226;BME280;36113;50.742;6.432;2023-04-28T06:03:43;112741.81;;;-145.50;100.00
50226;BME280;36113;50.742;6.432;2023-04-28T06:06:09;112741.81;;;-145.50;100.00
50226;BME280;36113;50.742;6.432;2023-04-28T06:08:35;112741.81;;;-145.50;100.00
50226;BME280;36113;50.742;6.432;2023-04-28T06:11:01;112741.81;;;-145.50;100.00
50226;BME280;36113;50.742;6.432;2023-04-28T06:13:26;112741.81;;;-145.50;100.00
50226;BME280;36113;50.742;6.432;2023-04-28T06:15:52;112741.81;;;-145.50;100.00
50226;BME280;36113;50.742;6.432;2023-04-28T06:18:17;112741.81;;;-145.50;100.00
50226;BME280;36113;50.742;6.432;2023-04-28T06:20:43;112741.81;;;-145.50;100.00
50226;BME280;36113;50.742;6.432;2023-04-28T06:23:08;112741.81;;;-145.50;100.00
50226;BME280;36113;50.742;6.432;2023-04-28T06:25:34;112741.81;;;-145.50;100.00
50226;BME280;36113;50.742;6.432;2023-04-28T06:28:00;112741.81;;;-145.50;100.00
50226;BME280;36113;50.742;6.432;2023-04-28T06:30:26;112741.81;;;-145.50;100.00
50226;BME280;36113;50.742;6.432;2023-04-28T06:32:51;112741.81;;;-145.50;100.00
50226;BME280;36113;50.742;6.432;2023-04-28T06:35:17;112741.81;;;-145.50;100.00
50226;BME280;36113;50.742;6.432;2023-04-28T06:37:42;112741.81;;;-145.50;100.00
50226;BME280;36113;50.742;6.432;2023-04-28T06:40:08;112741.81;;;-145.50;100.00
50226;BME280;36113;50.742;6.432;2023-04-28T06:42:34;112741.81;;;-145.50;100.00
50226;BME280;36113;50.742;6.432;2023-04-28T06:44:59;112741.81;;;-145.50;100.00
50226;BME280;36113;50.742;6.432;2023-04-28T06:47:25;112741.81;;;-145.50;100.00
50226;BME280;36113;50.742;6.432;2023-04-28T06:49:50;112741.81;;;-145.50;100.00
50226;BME280;36113;50.742;6.432;2023-04-28T06:52:16;112741.81;;;-145.50;100.00
50226;BME280;36113;50.742;6.432;2023-04-28T06:54:41;112741.81;;;-145.50;100.00
50226;BME280;36113;50.742;6.432;2023-04-28T06:57:07;112741.81;;;-145.50;100.00
50226;BME280;36113;50.742;6.432;2023-04-28T06:59:33;112741.81;;;-145.50;100.00
50226;BME280;36113;50.742;6.432;2023-04-28T07:01:59;112741.81;;;-145.50;100.00
50226;BME280;36113;50.742;6.432;2023-04-28T07:04:25;112741.81;;;-145.50;100.00
50226;BME280;36113;50.742;6.432;2023-04-28T07:06:50;112741.81;;;-145.50;100.00
50226;BME280;36113;50.742;6.432;2023-04-28T07:09:16;112741.81;;;-145.50;100.00
50226;BME280;36113;50.742;6.432;2023-04-28T07:11:42;112741.81;;;-145.50;100.00
50226;BME280;36113;50.742;6.432;2023-04-28T07:14:08;112741.81;;;-145.50;100.00
50226;BME280;36113;50.742;6.432;2023-04-28T07:16:33;112741.81;;;-145.50;100.00
50226;BME280;36113;50.742;6.432;2023-04-28T07:18:58;112741.81;;;-145.50;100.00
50226;BME280;36113;50.742;6.432;2023-04-28T07:21:24;112741.81;;;-145.50;100.00
50226;BME280;36113;50.742;6.432;2023-04-28T07:23:50;112741.81;;;-145.50;100.00
50226;BME280;36113;50.742;6.432;2023-04-28T07:26:17;112741.81;;;-145.50;100.00
50226;BME280;36113;50.742;6.432;2023-04-28T07:28:43;112741.81;;;-145.50;100.00
50226;BME280;36113;50.742;6.432;2023-04-28T07:31:09;112741.81;;;-145.50;100.00
50226;BME280;36113;50.742;6.432;2023-04-28T07:33:34;112741.81;;;-145.50;100.00
50226;BME280;36113;50.742;6.432;2023-04-28T07:35:59;112741.81;;;-145.50;100.00
50226;BME280;36113;50.742;6.432;2023-04-28T07:38:25;112741.81;;;-145.50;100.00
50226;BME280;36113;50.742;6.432;2023-04-28T07:40:50;112741.81;;;-145.50;100.00
50226;BME280;36113;50.742;6.432;2023-04-28T07:43:16;112741.81;;;-145.50;100.00
50226;BME280;36113;50.742;6.432;2023-04-28T07:45:41;112741.81;;;-145.50;100.00
50226;BME280;36113;50.742;6.432;2023-04-28T07:48:09;112741.81;;;-145.50;100.00
50226;BME280;36113;50.742;6.432;2023-04-28T07:50:35;112741.81;;;-145.50;100.00
50226;BME280;36113;50.742;6.432;2023-04-28T07:53:00;112741.81;;;-145.50;100.00
50226;BME280;36113;50.742;6.432;2023-04-28T07:55:25;112741.81;;;-145.50;100.00
50226;BME280;36113;50.742;6.432;2023-04-28T07:57:51;112741.81;;;-145.50;100.00
50226;BME280;36113;50.742;6.432;2023-04-28T08:00:16;112741.81;;;-145.50;100.00
50226;BME280;36113;50.742;6.432;2023-04-28T08:02:42;112741.81;;;-145.50;100.00
50226;BME280;36113;50.742;6.432;2023-04-28T08:05:08;112741.81;;;-145.50;100.00
50226;BME280;36113;50.742;6.432;2023-04-28T08:07:34;112741.81;;;-145.50;100.00
50226;BME280;36113;50.742;6.432;2023-04-28T08:10:01;112741.81;;;-145.50;100.00
50226;BME280;36113;50.742;6.432;2023-04-28T08:12:26;112741.81;;;-145.50;100.00
50226;BME280;36113;50.742;6.432;2023-04-28T08:14:51;112741.81;;;-145.50;100.00
50226;BME280;36113;50.742;6.432;2023-04-28T08:17:17;112741.81;;;-145.50;100.00
50226;BME280;36113;50.742;6.432;2023-04-28T08:19:42;112741.81;;;-145.50;100.00
50226;BME280;36113;50.742;6.432;2023-04-28T08:22:10;112741.81;;;-145.50;100.00
50226;BME280;36113;50.742;6.432;2023-04-28T08:24:36;112741.81;;;-145.50;100.00
50226;BME280;36113;50.742;6.432;2023-04-28T08:27:01;112741.81;;;-145.50;100.00
50226;BME280;36113;50.742;6.432;2023-04-28T08:29:30;112741.81;;;-145.50;100.00
50226;BME280;36113;50.742;6.432;2023-04-28T08:31:56;112741.81;;;-145.50;100.00
50226;BME280;36113;50.742;6.432;2023-04-28T08:34:22;112741.81;;;-145.50;100.00
50226;BME280;36113;50.742;6.432;2023-04-28T08:36:48;112741.81;;;-145.50;100.00
50226;BME280;36113;50.742;6.432;2023-04-28T08:39:13;112741.81;;;-145.50;100.00
50226;BME280;36113;50.742;6.432;2023-04-28T08:41:38;112741.81;;;-145.50;100.00
50226;BME280;36113;50.742;6.432;2023-04-28T08:44:08;112741.81;;;-145.50;100.00
50226;BME280;36113;50.742;6.432;2023-04-28T08:46:34;112741.81;;;-145.50;100.00
50226;BME280;36113;50.742;6.432;2023-04-28T08:49:00;112741.81;;;-145.50;100.00
50226;BME280;36113;50.742;6.432;2023-04-28T08:51:32;112741.81;;;-145.50;100.00
50226;BME280;36113;50.742;6.432;2023-04-28T08:53:58;112741.81;;;-145.50;100.00
50226;BME280;36113;50.742;6.432;2023-04-28T08:56:31;112741.81;;;-145.50;100.00
50226;BME280;36113;50.742;6.432;2023-04-28T08:59:01;112741.81;;;-145.50;100.00
50226;BME280;36113;50.742;6.432;2023-04-28T09:01:26;112741.81;;;-145.50;100.00
50226;BME280;36113;50.742;6.432;2023-04-28T09:03:53;112741.81;;;-145.50;100.00
50226;BME280;36113;50.742;6.432;2023-04-28T09:06:18;112741.81;;;-145.50;99.88
50226;BME280;36113;50.742;6.432;2023-04-28T09:08:43;112741.81;;;-145.50;99.73
50226;BME280;36113;50.742;6.432;2023-04-28T09:11:10;112741.81;;;-145.50;100.00
50226;BME280;36113;50.742;6.432;2023-04-28T09:13:38;112741.81;;;-145.50;100.00
50226;BME280;36113;50.742;6.432;2023-04-28T09:16:04;112741.81;;;-145.50;100.00
50226;BME280;36113;50.742;6.432;2023-04-28T09:18:30;112741.81;;;-145.50;100.00
50226;BME280;36113;50.742;6.432;2023-04-28T09:21:06;112741.81;;;-145.50;100.00
50226;BME280;36113;50.742;6.432;2023-04-28T09:23:32;112741.81;;;-145.50;100.00
50226;BME280;36113;50.742;6.432;2023-04-28T09:26:05;112741.81;;;-145.50;100.00
50226;BME280;36113;50.742;6.432;2023-04-28T09:28:32;112741.81;;;-145.50;100.00
50226;BME280;36113;50.742;6.432;2023-04-28T09:30:58;112741.81;;;-145.50;100.00
50226;BME280;36113;50.742;6.432;2023-04-28T09:33:24;112741.81;;;-145.50;100.00
50226;BME280;36113;50.742;6.432;2023-04-28T09:35:50;112741.81;;;-145.50;100.00
50226;BME280;36113;50.742;6.432;2023-04-28T09:38:16;112741.81;;;-145.50;100.00
50226;BME280;36113;50.742;6.432;2023-04-28T09:45:53;112741.81;;;-145.50;100.00
50226;BME280;36113;50.742;6.432;2023-04-28T09:48:29;112741.81;;;-145.50;100.00
50226;BME280;36113;50.742;6.432;2023-04-28T09:50:55;112741.81;;;-145.50;100.00
50226;BME280;36113;50.742;6.432;2023-04-28T09:53:25;112741.81;;;-145.50;100.00
50226;BME280;36113;50.742;6.432;2023-04-28T09:55:53;112741.81;;;-145.50;100.00
50226;BME280;36113;50.742;6.432;2023-04-28T09:58:20;112741.81;;;-145.50;100.00
50226;BME280;36113;50.742;6.432;2023-04-28T10:00:50;112741.81;;;-145.50;100.00
50226;BME280;36113;50.742;6.432;2023-04-28T10:03:16;112741.81;;;-145.50;100.00
50226;BME280;36113;50.742;6.432;2023-04-28T10:05:45;112741.81;;;-145.50;100.00
50226;BME280;36113;50.742;6.432;2023-04-28T10:08:11;112741.81;;;-145.50;99.78
50226;BME280;36113;50.742;6.432;2023-04-28T10:10:37;112741.81;;;-145.50;98.51
50226;BME280;36113;50.742;6.432;2023-04-28T10:13:03;112741.81;;;-145.50;96.74
50226;BME280;36113;50.742;6.432;2023-04-28T10:15:29;112741.81;;;-145.50;97.02
50226;BME280;36113;50.742;6.432;2023-04-28T10:17:55;112741.81;;;-145.50;95.76
50226;BME280;36113;50.742;6.432;2023-04-28T10:20:21;112741.81;;;-145.50;95.33
50226;BME280;36113;50.742;6.432;2023-04-28T10:25:54;112741.81;;;-145.50;94.84
50226;BME280;36113;50.742;6.432;2023-04-28T10:28:22;112741.81;;;-145.50;94.23
50226;BME280;36113;50.742;6.432;2023-04-28T10:31:08;112741.81;;;-145.50;92.44
50226;BME280;36113;50.742;6.432;2023-04-28T10:33:36;112741.81;;;-145.50;93.55
50226;BME280;36113;50.742;6.432;2023-04-28T10:36:02;112741.81;;;-145.50;93.30
50226;BME280;36113;50.742;6.432;2023-04-28T10:38:28;112741.81;;;-145.50;90.38
50226;BME280;36113;50.742;6.432;2023-04-28T10:40:53;112741.81;;;-145.50;90.08
50226;BME280;36113;50.742;6.432;2023-04-28T10:56:15;112741.81;;;-145.50;88.66
50226;BME280;36113;50.742;6.432;2023-04-28T10:58:43;112741.81;;;-145.50;88.67
50226;BME280;36113;50.742;6.432;2023-04-28T11:03:58;112741.81;;;-145.50;85.72
50226;BME280;36113;50.742;6.432;2023-04-28T11:07:07;112741.81;;;-145.50;84.94
50226;BME280;36113;50.742;6.432;2023-04-28T11:16:56;112741.81;;;-145.50;84.93
50226;BME280;36113;50.742;6.432;2023-04-28T11:19:27;112741.81;;;-145.50;83.73
50226;BME280;36113;50.742;6.432;2023-04-28T11:21:55;112741.81;;;-145.50;83.22
50226;BME280;36113;50.742;6.432;2023-04-28T11:24:21;112741.81;;;-145.50;83.59
50226;BME280;36113;50.742;6.432;2023-04-28T11:26:49;112741.81;;;-145.50;82.88
50226;BME280;36113;50.742;6.432;2023-04-28T11:29:15;112741.81;;;-145.50;78.38
50226;BME280;36113;50.742;6.432;2023-04-28T11:31:48;112741.81;;;-145.50;79.40
50226;BME280;36113;50.742;6.432;2023-04-28T11:34:18;112741.81;;;-145.50;78.51
50226;BME280;36113;50.742;6.432;2023-04-28T11:36:44;112741.81;;;-145.50;77.02
50226;BME280;36113;50.742;6.432;2023-04-28T11:39:12;112741.81;;;-145.50;75.59
50226;BME280;36113;50.742;6.432;2023-04-28T11:41:41;112741.81;;;-145.50;74.98
50226;BME280;36113;50.742;6.432;2023-04-28T11:44:14;112741.81;;;-145.50;74.93
50226;BME280;36113;50.742;6.432;2023-04-28T11:46:54;112741.81;;;-145.50;71.06
50226;BME280;36113;50.742;6.432;2023-04-28T11:49:25;112741.81;;;-145.50;71.75
50226;BME280;36113;50.742;6.432;2023-04-28T11:52:04;112741.81;;;-145.50;69.38
50226;BME280;36113;50.742;6.432;2023-04-28T11:54:30;112741.81;;;-145.50;69.25
50226;BME280;36113;50.742;6.432;2023-04-28T11:56:57;112741.81;;;-145.50;71.39
50226;BME280;36113;50.742;6.432;2023-04-28T11:59:27;112741.81;;;-145.50;70.31
50226;BME280;36113;50.742;6.432;2023-04-28T12:01:55;112741.81;;;-145.50;69.47
50226;BME280;36113;50.742;6.432;2023-04-28T12:04:34;112741.81;;;-145.50;70.95
50226;BME280;36113;50.742;6.432;2023-04-28T12:09:28;112741.81;;;-145.50;67.59
50226;BME280;36113;50.742;6.432;2023-04-28T12:11:55;112741.81;;;-145.50;69.96
50226;BME280;36113;50.742;6.432;2023-04-28T12:14:22;112741.81;;;-145.50;70.31
50226;BME280;36113;50.742;6.432;2023-04-28T12:16:47;112741.81;;;-145.50;70.98
50226;BME280;36113;50.742;6.432;2023-04-28T12:19:15;112741.81;;;-145.50;71.84
50226;BME280;36113;50.742;6.432;2023-04-28T12:21:41;112741.81;;;-145.50;71.78
50226;BME280;36113;50.742;6.432;2023-04-28T12:24:32;112741.81;;;-145.50;69.96
50226;BME280;36113;50.742;6.432;2023-04-28T12:27:19;112741.81;;;-145.50;68.03
50226;BME280;36113;50.742;6.432;2023-04-28T12:29:49;112741.81;;;-145.50;69.35
50226;BME280;36113;50.742;6.432;2023-04-28T12:32:15;112741.81;;;-145.50;68.19
50226;BME280;36113;50.742;6.432;2023-04-28T12:34:41;112741.81;;;-145.50;66.40
50226;BME280;36113;50.742;6.432;2023-04-28T12:37:08;112741.81;;;-145.50;66.66
50226;BME280;36113;50.742;6.432;2023-04-28T12:39:35;112741.81;;;-145.50;67.21
50226;BME280;36113;50.742;6.432;2023-04-28T12:42:01;112741.81;;;-145.50;65.62
50226;BME280;36113;50.742;6.432;2023-04-28T12:44:36;112741.81;;;-145.50;65.18
50226;BME280;36113;50.742;6.432;2023-04-28T12:47:03;112741.81;;;-145.50;64.95
50226;BME280;36113;50.742;6.432;2023-04-28T12:49:30;112741.81;;;-145.50;64.04
50226;BME280;36113;50.742;6.432;2023-04-28T12:51:55;112741.81;;;-145.50;62.32
50226;BME280;36113;50.742;6.432;2023-04-28T12:54:20;112741.81;;;-145.50;62.35
50226;BME280;36113;50.742;6.432;2023-04-28T12:56:46;112741.81;;;-145.50;61.28